sensor_id;sensor_type;location;lat;lon;timestamp;P1;durP1;ratioP1;P2;durP2;ratioP2
39738;SDS011;25422;48.286;8.484;2023-08-17T00:01:48;8.57;;;7.65;;
39738;SDS011;25422;48.286;8.484;2023-08-17T00:04:13;13.32;;;6.90;;
39738;SDS011;25422;48.286;8.484;2023-08-17T00:06:39;45.95;;;6.72;;
39738;SDS011;25422;48.286;8.484;2023-08-17T00:09:05;14.23;;;6.22;;
39738;SDS011;25422;48.286;8.484;2023-08-17T00:11:32;12.73;;;7.60;;
39738;SDS011;25422;48.286;8.484;2023-08-17T00:13:58;7.80;;;7.00;;
39738;SDS011;25422;48.286;8.484;2023-08-17T00:16:24;8.20;;;7.40;;
39738;SDS011;25422;48.286;8.484;2023-08-17T00:18:49;5.85;;;5.35;;
39738;SDS011;25422;48.286;8.484;2023-08-17T00:21:15;6.68;;;6.07;;
39738;SDS011;25422;48.286;8.484;2023-08-17T00:23:40;7.20;;;5.40;;
39738;SDS011;25422;48.286;8.484;2023-08-17T00:26:05;4.20;;;3.90;;
39738;SDS011;25422;48.286;8.484;2023-08-17T00:28:31;6.07;;;4.30;;
39738;SDS011;25422;48.286;8.484;2023-08-17T00:30:57;5.32;;;4.78;;
39738;SDS011;25422;48.286;8.484;2023-08-17T00:33:22;5.35;;;4.93;;
39738;SDS011;25422;48.286;8.484;2023-08-17T00:35:48;5.78;;;5.07;;
39738;SDS011;25422;48.286;8.484;2023-08-17T00:38:13;6.90;;;4.90;;
39738;SDS011;25422;48.286;8.484;2023-08-17T00:40:39;5.47;;;5.05;;
39738;SDS011;25422;48.286;8.484;2023-08-17T00:43:04;10.98;;;6.03;;
39738;SDS011;25422;48.286;8.484;2023-08-17T00:45:30;17.35;;;5.25;;
39738;SDS011;25422;48.286;8.484;2023-08-17T00:47:58;8.20;;;5.50;;
39738;SDS011;25422;48.286;8.484;2023-08-17T00:50:24;9.85;;;6.18;;
39738;SDS011;25422;48.286;8.484;2023-08-17T00:52:53;10.73;;;6.03;;
39738;SDS011;25422;48.286;8.484;2023-08-17T00:55:20;6.57;;;5.90;;
39738;SDS011;25422;48.286;8.484;2023-08-17T00:57:46;6.53;;;5.93;;
39738;SDS011;25422;48.286;8.484;2023-08-17T01:00:12;7.03;;;6.32;;
39738;SDS011;25422;48.286;8.484;2023-08-17T01:02:39;6.80;;;6.20;;
39738;SDS011;25422;48.286;8.484;2023-08-17T01:05:07;6.78;;;6.07;;
39738;SDS011;25422;48.286;8.484;2023-08-17T01:07:32;7.43;;;6.03;;
39738;SDS011;25422;48.286;8.484;2023-08-17T01:09:59;10.15;;;7.53;;
39738;SDS011;25422;48.286;8.484;2023-08-17T01:12:30;12.07;;;7.75;;
39738;SDS011;25422;48.286;8.484;2023-08-17T01:17:37;12.02;;;8.05;;
39738;SDS011;25422;48.286;8.484;2023-08-17T01:20:10;12.90;;;8.45;;
39738;SDS011;25422;48.286;8.484;2023-08-17T01:22:38;19.95;;;9.73;;
39738;SDS011;25422;48.286;8.484;2023-08-17T01:25:07;19.75;;;10.00;;
39738;SDS011;25422;48.286;8.484;2023-08-17T01:27:41;23.00;;;9.15;;
39738;SDS011;25422;48.286;8.484;2023-08-17T01:30:10;38.42;;;9.80;;
39738;SDS011;25422;48.286;8.484;2023-08-17T01:32:37;33.45;;;9.88;;
39738;SDS011;25422;48.286;8.484;2023-08-17T01:35:09;30.85;;;9.18;;
39738;SDS011;25422;48.286;8.484;2023-08-17T01:37:41;19.05;;;8.00;;
39738;SDS011;25422;48.286;8.484;2023-08-17T01:40:08;11.27;;;7.30;;
39738;SDS011;25422;48.286;8.484;2023-08-17T01:42:34;29.25;;;8.52;;
39738;SDS011;25422;48.286;8.484;2023-08-17T01:45:01;26.80;;;9.82;;
39738;SDS011;25422;48.286;8.484;2023-08-17T01:47:26;18.17;;;9.23;;
39738;SDS011;25422;48.286;8.484;2023-08-17T01:49:52;17.17;;;8.85;;
39738;SDS011;25422;48.286;8.484;2023-08-17T01:52:17;23.75;;;10.20;;
39738;SDS011;25422;48.286;8.484;2023-08-17T01:54:42;15.60;;;8.35;;
39738;SDS011;25422;48.286;8.484;2023-08-17T01:57:08;13.10;;;7.45;;
39738;SDS011;25422;48.286;8.484;2023-08-17T01:59:33;32.88;;;8.52;;
39738;SDS011;25422;48.286;8.484;2023-08-17T02:01:59;22.13;;;8.27;;
39738;SDS011;25422;48.286;8.484;2023-08-17T02:04:24;17.95;;;7.85;;
39738;SDS011;25422;48.286;8.484;2023-08-17T02:06:50;11.88;;;8.25;;
39738;SDS011;25422;48.286;8.484;2023-08-17T02:09:15;16.58;;;9.05;;
39738;SDS011;25422;48.286;8.484;2023-08-17T02:11:41;12.75;;;7.53;;
39738;SDS011;25422;48.286;8.484;2023-08-17T02:14:06;17.83;;;8.43;;
39738;SDS011;25422;48.286;8.484;2023-08-17T02:16:32;7.95;;;7.22;;
39738;SDS011;25422;48.286;8.484;2023-08-17T02:18:57;12.05;;;7.75;;
39738;SDS011;25422;48.286;8.484;2023-08-17T02:21:24;21.63;;;9.43;;
39738;SDS011;25422;48.286;8.484;2023-08-17T02:23:49;49.97;;;10.10;;
39738;SDS011;25422;48.286;8.484;2023-08-17T02:26:14;33.08;;;8.55;;
39738;SDS011;25422;48.286;8.484;2023-08-17T02:28:40;45.95;;;8.20;;
39738;SDS011;25422;48.286;8.484;2023-08-17T02:31:05;44.42;;;8.93;;
39738;SDS011;25422;48.286;8.484;2023-08-17T02:33:31;27.90;;;7.43;;
39738;SDS011;25422;48.286;8.484;2023-08-17T02:35:58;23.33;;;7.90;;
39738;SDS011;25422;48.286;8.484;2023-08-17T02:38:23;11.15;;;7.10;;
39738;SDS011;25422;48.286;8.484;2023-08-17T02:40:49;14.80;;;6.85;;
39738;SDS011;25422;48.286;8.484;2023-08-17T02:43:15;11.90;;;7.57;;
39738;SDS011;25422;48.286;8.484;2023-08-17T02:45:40;9.18;;;6.68;;
39738;SDS011;25422;48.286;8.484;2023-08-17T02:48:06;19.75;;;8.10;;
39738;SDS011;25422;48.286;8.484;2023-08-17T02:50:31;16.83;;;7.63;;
39738;SDS011;25422;48.286;8.484;2023-08-17T02:52:57;12.27;;;7.03;;
39738;SDS011;25422;48.286;8.484;2023-08-17T02:55:22;12.05;;;7.32;;
39738;SDS011;25422;48.286;8.484;2023-08-17T02:57:47;9.18;;;7.00;;
39738;SDS011;25422;48.286;8.484;2023-08-17T03:00:13;11.90;;;6.72;;
39738;SDS011;25422;48.286;8.484;2023-08-17T03:02:39;15.77;;;7.18;;
39738;SDS011;25422;48.286;8.484;2023-08-17T03:05:04;13.32;;;6.63;;
39738;SDS011;25422;48.286;8.484;2023-08-17T03:07:30;8.00;;;6.38;;
39738;SDS011;25422;48.286;8.484;2023-08-17T03:09:55;7.50;;;6.63;;
39738;SDS011;25422;48.286;8.484;2023-08-17T03:12:20;7.28;;;6.68;;
39738;SDS011;25422;48.286;8.484;2023-08-17T03:14:46;8.68;;;6.72;;
39738;SDS011;25422;48.286;8.484;2023-08-17T03:17:13;22.95;;;7.47;;
39738;SDS011;25422;48.286;8.484;2023-08-17T03:19:38;22.23;;;6.97;;
39738;SDS011;25422;48.286;8.484;2023-08-17T03:22:04;23.83;;;6.30;;
39738;SDS011;25422;48.286;8.484;2023-08-17T03:24:29;13.73;;;6.43;;
39738;SDS011;25422;48.286;8.484;2023-08-17T03:26:56;9.70;;;7.55;;
39738;SDS011;25422;48.286;8.484;2023-08-17T03:29:23;22.55;;;7.38;;
39738;SDS011;25422;48.286;8.484;2023-08-17T03:31:49;28.08;;;8.73;;
39738;SDS011;25422;48.286;8.484;2023-08-17T03:34:15;14.77;;;7.22;;
39738;SDS011;25422;48.286;8.484;2023-08-17T03:36:40;20.85;;;8.15;;
39738;SDS011;25422;48.286;8.484;2023-08-17T03:39:06;28.35;;;8.80;;
39738;SDS011;25422;48.286;8.484;2023-08-17T03:41:31;19.67;;;8.02;;
39738;SDS011;25422;48.286;8.484;2023-08-17T03:43:57;22.33;;;8.82;;
39738;SDS011;25422;48.286;8.484;2023-08-17T03:46:23;17.10;;;8.05;;
39738;SDS011;25422;48.286;8.484;2023-08-17T03:48:49;19.13;;;8.63;;
39738;SDS011;25422;48.286;8.484;2023-08-17T03:51:14;25.85;;;7.82;;
39738;SDS011;25422;48.286;8.484;2023-08-17T03:53:40;28.02;;;8.15;;
39738;SDS011;25422;48.286;8.484;2023-08-17T03:56:06;40.13;;;9.25;;
39738;SDS011;25422;48.286;8.484;2023-08-17T03:58:31;30.35;;;8.93;;
39738;SDS011;25422;48.286;8.484;2023-08-17T04:00:59;20.90;;;8.15;;
39738;SDS011;25422;48.286;8.484;2023-08-17T04:03:28;93.05;;;9.30;;
39738;SDS011;25422;48.286;8.484;2023-08-17T04:05:53;70.50;;;9.93;;
39738;SDS011;25422;48.286;8.484;2023-08-17T04:08:19;37.35;;;8.70;;
39738;SDS011;25422;48.286;8.484;2023-08-17T04:10:45;82.90;;;9.82;;
39738;SDS011;25422;48.286;8.484;2023-08-17T04:13:11;40.10;;;8.07;;
39738;SDS011;25422;48.286;8.484;2023-08-17T04:15:36;28.42;;;7.45;;
39738;SDS011;25422;48.286;8.484;2023-08-17T04:18:01;37.05;;;7.13;;
39738;SDS011;25422;48.286;8.484;2023-08-17T04:20:27;29.58;;;7.30;;
39738;SDS011;25422;48.286;8.484;2023-08-17T04:22:52;22.38;;;6.65;;
39738;SDS011;25422;48.286;8.484;2023-08-17T04:25:18;24.95;;;6.20;;
39738;SDS011;25422;48.286;8.484;2023-08-17T04:27:43;24.20;;;7.40;;
39738;SDS011;25422;48.286;8.484;2023-08-17T04:30:09;20.40;;;7.25;;
39738;SDS011;25422;48.286;8.484;2023-08-17T04:32:45;16.42;;;6.70;;
39738;SDS011;25422;48.286;8.484;2023-08-17T04:35:17;7.40;;;6.65;;
39738;SDS011;25422;48.286;8.484;2023-08-17T04:37:43;14.52;;;6.57;;
39738;SDS011;25422;48.286;8.484;2023-08-17T04:40:09;8.05;;;6.03;;
39738;SDS011;25422;48.286;8.484;2023-08-17T04:42:36;9.43;;;7.25;;
39738;SDS011;25422;48.286;8.484;2023-08-17T04:45:01;9.50;;;7.20;;
39738;SDS011;25422;48.286;8.484;2023-08-17T04:47:28;12.63;;;7.97;;
39738;SDS011;25422;48.286;8.484;2023-08-17T04:49:54;10.30;;;7.90;;
39738;SDS011;25422;48.286;8.484;2023-08-17T04:52:19;29.20;;;8.23;;
39738;SDS011;25422;48.286;8.484;2023-08-17T04:54:45;14.68;;;7.45;;
39738;SDS011;25422;48.286;8.484;2023-08-17T04:57:10;14.82;;;7.40;;
39738;SDS011;25422;48.286;8.484;2023-08-17T04:59:36;17.73;;;7.90;;
39738;SDS011;25422;48.286;8.484;2023-08-17T05:02:01;26.70;;;8.80;;
39738;SDS011;25422;48.286;8.484;2023-08-17T05:04:27;20.77;;;7.70;;
39738;SDS011;25422;48.286;8.484;2023-08-17T05:06:52;13.57;;;7.78;;
39738;SDS011;25422;48.286;8.484;2023-08-17T05:09:18;20.90;;;7.55;;
39738;SDS011;25422;48.286;8.484;2023-08-17T05:11:44;34.10;;;9.10;;
39738;SDS011;25422;48.286;8.484;2023-08-17T05:14:10;28.35;;;9.10;;
39738;SDS011;25422;48.286;8.484;2023-08-17T05:16:35;12.80;;;8.40;;
39738;SDS011;25422;48.286;8.484;2023-08-17T05:19:02;39.30;;;8.52;;
39738;SDS011;25422;48.286;8.484;2023-08-17T05:21:28;21.00;;;7.68;;
39738;SDS011;25422;48.286;8.484;2023-08-17T05:23:54;26.98;;;8.55;;
39738;SDS011;25422;48.286;8.484;2023-08-17T05:26:21;18.20;;;8.40;;
39738;SDS011;25422;48.286;8.484;2023-08-17T05:28:47;20.58;;;8.30;;
39738;SDS011;25422;48.286;8.484;2023-08-17T05:31:13;23.15;;;8.75;;
39738;SDS011;25422;48.286;8.484;2023-08-17T05:36:08;18.58;;;8.10;;
39738;SDS011;25422;48.286;8.484;2023-08-17T05:38:33;19.98;;;8.73;;
39738;SDS011;25422;48.286;8.484;2023-08-17T05:40:59;11.02;;;7.50;;
39738;SDS011;25422;48.286;8.484;2023-08-17T05:43:24;14.70;;;8.40;;
39738;SDS011;25422;48.286;8.484;2023-08-17T05:45:50;8.43;;;7.60;;
39738;SDS011;25422;48.286;8.484;2023-08-17T05:48:18;11.32;;;7.80;;
39738;SDS011;25422;48.286;8.484;2023-08-17T05:50:45;10.18;;;7.63;;
39738;SDS011;25422;48.286;8.484;2023-08-17T05:53:11;10.32;;;6.97;;
39738;SDS011;25422;48.286;8.484;2023-08-17T05:55:36;19.02;;;6.32;;
39738;SDS011;25422;48.286;8.484;2023-08-17T05:58:02;14.90;;;6.28;;
39738;SDS011;25422;48.286;8.484;2023-08-17T06:00:29;17.10;;;6.30;;
39738;SDS011;25422;48.286;8.484;2023-08-17T06:02:54;14.98;;;6.43;;
39738;SDS011;25422;48.286;8.484;2023-08-17T06:05:25;12.00;;;6.40;;
39738;SDS011;25422;48.286;8.484;2023-08-17T06:07:51;17.88;;;6.43;;
39738;SDS011;25422;48.286;8.484;2023-08-17T06:10:17;12.05;;;6.68;;
39738;SDS011;25422;48.286;8.484;2023-08-17T06:12:43;37.67;;;7.50;;
39738;SDS011;25422;48.286;8.484;2023-08-17T06:15:08;21.42;;;6.10;;
39738;SDS011;25422;48.286;8.484;2023-08-17T06:17:34;15.90;;;5.85;;
39738;SDS011;25422;48.286;8.484;2023-08-17T06:19:59;33.92;;;5.30;;
39738;SDS011;25422;48.286;8.484;2023-08-17T06:22:25;11.50;;;5.07;;
39738;SDS011;25422;48.286;8.484;2023-08-17T06:24:50;5.90;;;5.18;;
39738;SDS011;25422;48.286;8.484;2023-08-17T06:27:15;9.38;;;4.10;;
39738;SDS011;25422;48.286;8.484;2023-08-17T06:29:41;11.25;;;4.40;;
39738;SDS011;25422;48.286;8.484;2023-08-17T06:32:06;5.60;;;5.10;;
39738;SDS011;25422;48.286;8.484;2023-08-17T06:34:33;5.45;;;4.72;;
39738;SDS011;25422;48.286;8.484;2023-08-17T06:36:59;7.10;;;4.50;;
39738;SDS011;25422;48.286;8.484;2023-08-17T06:39:26;4.93;;;4.15;;
39738;SDS011;25422;48.286;8.484;2023-08-17T06:41:52;8.88;;;5.75;;
39738;SDS011;25422;48.286;8.484;2023-08-17T06:44:18;5.45;;;4.45;;
39738;SDS011;25422;48.286;8.484;2023-08-17T06:46:44;7.53;;;5.68;;
39738;SDS011;25422;48.286;8.484;2023-08-17T06:49:10;10.48;;;7.10;;
39738;SDS011;25422;48.286;8.484;2023-08-17T06:51:36;9.43;;;6.47;;
39738;SDS011;25422;48.286;8.484;2023-08-17T06:54:02;10.70;;;6.32;;
39738;SDS011;25422;48.286;8.484;2023-08-17T06:56:27;7.93;;;7.00;;
39738;SDS011;25422;48.286;8.484;2023-08-17T06:58:52;8.88;;;7.03;;
39738;SDS011;25422;48.286;8.484;2023-08-17T07:01:18;6.90;;;5.72;;
39738;SDS011;25422;48.286;8.484;2023-08-17T07:03:43;7.03;;;6.10;;
39738;SDS011;25422;48.286;8.484;2023-08-17T07:06:09;7.40;;;6.25;;
39738;SDS011;25422;48.286;8.484;2023-08-17T07:08:35;8.63;;;6.03;;
39738;SDS011;25422;48.286;8.484;2023-08-17T07:11:00;8.23;;;6.22;;
39738;SDS011;25422;48.286;8.484;2023-08-17T07:13:26;7.10;;;6.40;;
39738;SDS011;25422;48.286;8.484;2023-08-17T07:15:52;8.07;;;6.10;;
39738;SDS011;25422;48.286;8.484;2023-08-17T07:18:18;6.00;;;5.40;;
39738;SDS011;25422;48.286;8.484;2023-08-17T07:20:43;6.25;;;5.65;;
39738;SDS011;25422;48.286;8.484;2023-08-17T07:23:08;6.05;;;5.45;;
39738;SDS011;25422;48.286;8.484;2023-08-17T07:25:38;6.22;;;4.97;;
39738;SDS011;25422;48.286;8.484;2023-08-17T07:28:03;6.47;;;5.75;;
39738;SDS011;25422;48.286;8.484;2023-08-17T07:30:29;6.68;;;5.70;;
39738;SDS011;25422;48.286;8.484;2023-08-17T07:32:54;9.00;;;5.82;;
39738;SDS011;25422;48.286;8.484;2023-08-17T07:35:20;8.43;;;5.60;;
39738;SDS011;25422;48.286;8.484;2023-08-17T07:37:45;7.03;;;5.90;;
39738;SDS011;25422;48.286;8.484;2023-08-17T07:40:11;8.90;;;6.28;;
39738;SDS011;25422;48.286;8.484;2023-08-17T07:42:36;8.50;;;6.13;;
39738;SDS011;25422;48.286;8.484;2023-08-17T07:45:02;5.30;;;4.80;;
39738;SDS011;25422;48.286;8.484;2023-08-17T07:47:31;5.80;;;5.20;;
39738;SDS011;25422;48.286;8.484;2023-08-17T07:49:56;7.18;;;5.00;;
39738;SDS011;25422;48.286;8.484;2023-08-17T07:52:23;6.40;;;5.28;;
39738;SDS011;25422;48.286;8.484;2023-08-17T07:54:48;4.75;;;4.32;;
39738;SDS011;25422;48.286;8.484;2023-08-17T07:57:14;8.23;;;4.95;;
39738;SDS011;25422;48.286;8.484;2023-08-17T07:59:39;5.18;;;4.55;;
39738;SDS011;25422;48.286;8.484;2023-08-17T08:02:05;7.28;;;4.95;;
39738;SDS011;25422;48.286;8.484;2023-08-17T08:04:31;5.10;;;4.70;;
39738;SDS011;25422;48.286;8.484;2023-08-17T08:06:56;8.23;;;4.90;;
39738;SDS011;25422;48.286;8.484;2023-08-17T08:09:21;6.68;;;4.32;;
39738;SDS011;25422;48.286;8.484;2023-08-17T08:11:47;4.65;;;4.07;;
39738;SDS011;25422;48.286;8.484;2023-08-17T08:14:12;5.22;;;3.70;;
39738;SDS011;25422;48.286;8.484;2023-08-17T08:16:38;4.95;;;4.45;;
39738;SDS011;25422;48.286;8.484;2023-08-17T08:19:03;6.50;;;4.15;;
39738;SDS011;25422;48.286;8.484;2023-08-17T08:21:28;5.38;;;4.53;;
39738;SDS011;25422;48.286;8.484;2023-08-17T08:23:54;8.77;;;4.32;;
39738;SDS011;25422;48.286;8.484;2023-08-17T08:26:19;5.35;;;4.57;;
39738;SDS011;25422;48.286;8.484;2023-08-17T08:28:45;6.57;;;4.80;;
39738;SDS011;25422;48.286;8.484;2023-08-17T08:31:10;4.40;;;4.00;;
39738;SDS011;25422;48.286;8.484;2023-08-17T08:33:35;5.75;;;4.28;;
39738;SDS011;25422;48.286;8.484;2023-08-17T08:36:01;4.68;;;4.03;;
39738;SDS011;25422;48.286;8.484;2023-08-17T08:38:26;8.20;;;5.50;;
39738;SDS011;25422;48.286;8.484;2023-08-17T08:40:52;6.55;;;4.90;;
39738;SDS011;25422;48.286;8.484;2023-08-17T08:43:18;6.30;;;4.75;;
39738;SDS011;25422;48.286;8.484;2023-08-17T08:45:44;6.15;;;4.05;;
39738;SDS011;25422;48.286;8.484;2023-08-17T08:48:13;4.47;;;3.78;;
39738;SDS011;25422;48.286;8.484;2023-08-17T08:50:39;4.45;;;4.03;;
39738;SDS011;25422;48.286;8.484;2023-08-17T08:53:09;7.32;;;3.60;;
39738;SDS011;25422;48.286;8.484;2023-08-17T08:55:38;5.85;;;3.33;;
39738;SDS011;25422;48.286;8.484;2023-08-17T08:58:22;5.50;;;4.03;;
39738;SDS011;25422;48.286;8.484;2023-08-17T09:00:54;4.70;;;3.72;;
39738;SDS011;25422;48.286;8.484;2023-08-17T09:03:20;5.85;;;4.15;;
39738;SDS011;25422;48.286;8.484;2023-08-17T09:05:49;5.22;;;4.43;;
39738;SDS011;25422;48.286;8.484;2023-08-17T09:08:18;4.43;;;4.03;;
39738;SDS011;25422;48.286;8.484;2023-08-17T09:10:46;5.60;;;4.50;;
39738;SDS011;25422;48.286;8.484;2023-08-17T09:13:11;7.80;;;5.57;;
39738;SDS011;25422;48.286;8.484;2023-08-17T09:15:37;5.47;;;4.93;;
39738;SDS011;25422;48.286;8.484;2023-08-17T09:18:03;5.97;;;4.55;;
39738;SDS011;25422;48.286;8.484;2023-08-17T09:20:37;7.93;;;4.28;;
39738;SDS011;25422;48.286;8.484;2023-08-17T09:23:08;4.72;;;3.58;;
39738;SDS011;25422;48.286;8.484;2023-08-17T09:25:37;8.60;;;3.88;;
39738;SDS011;25422;48.286;8.484;2023-08-17T09:28:06;5.88;;;3.22;;
39738;SDS011;25422;48.286;8.484;2023-08-17T09:30:46;6.38;;;3.00;;
39738;SDS011;25422;48.286;8.484;2023-08-17T09:33:15;3.97;;;3.00;;
39738;SDS011;25422;48.286;8.484;2023-08-17T09:35:41;6.72;;;3.05;;
39738;SDS011;25422;48.286;8.484;2023-08-17T09:38:07;3.72;;;2.70;;
39738;SDS011;25422;48.286;8.484;2023-08-17T09:40:32;3.60;;;2.45;;
39738;SDS011;25422;48.286;8.484;2023-08-17T09:42:58;6.45;;;2.72;;
39738;SDS011;25422;48.286;8.484;2023-08-17T09:45:24;6.38;;;2.65;;
39738;SDS011;25422;48.286;8.484;2023-08-17T09:47:50;4.68;;;3.47;;
39738;SDS011;25422;48.286;8.484;2023-08-17T09:50:15;5.25;;;3.17;;
39738;SDS011;25422;48.286;8.484;2023-08-17T09:52:41;3.45;;;2.63;;
39738;SDS011;25422;48.286;8.484;2023-08-17T09:55:07;3.55;;;2.88;;
39738;SDS011;25422;48.286;8.484;2023-08-17T09:57:35;3.13;;;2.50;;
39738;SDS011;25422;48.286;8.484;2023-08-17T10:00:01;4.50;;;2.72;;
39738;SDS011;25422;48.286;8.484;2023-08-17T10:02:26;7.22;;;3.05;;
39738;SDS011;25422;48.286;8.484;2023-08-17T10:04:54;3.90;;;2.83;;
39738;SDS011;25422;48.286;8.484;2023-08-17T10:07:24;4.18;;;2.60;;
39738;SDS011;25422;48.286;8.484;2023-08-17T10:09:56;4.00;;;2.70;;
39738;SDS011;25422;48.286;8.484;2023-08-17T10:12:27;3.67;;;2.80;;
39738;SDS011;25422;48.286;8.484;2023-08-17T10:15:02;5.43;;;2.50;;
39738;SDS011;25422;48.286;8.484;2023-08-17T10:17:35;7.75;;;2.90;;
39738;SDS011;25422;48.286;8.484;2023-08-17T10:20:08;4.53;;;3.40;;
39738;SDS011;25422;48.286;8.484;2023-08-17T10:22:52;4.18;;;3.10;;
39738;SDS011;25422;48.286;8.484;2023-08-17T10:25:26;3.63;;;2.95;;
39738;SDS011;25422;48.286;8.484;2023-08-17T10:27:52;4.38;;;3.33;;
39738;SDS011;25422;48.286;8.484;2023-08-17T10:30:19;4.10;;;3.22;;
39738;SDS011;25422;48.286;8.484;2023-08-17T10:32:44;7.72;;;3.20;;
39738;SDS011;25422;48.286;8.484;2023-08-17T10:35:11;4.68;;;3.30;;
39738;SDS011;25422;48.286;8.484;2023-08-17T10:37:38;5.13;;;3.20;;
39738;SDS011;25422;48.286;8.484;2023-08-17T10:40:04;6.55;;;3.15;;
39738;SDS011;25422;48.286;8.484;2023-08-17T10:42:30;5.68;;;3.30;;
39738;SDS011;25422;48.286;8.484;2023-08-17T10:44:57;6.60;;;3.00;;
39738;SDS011;25422;48.286;8.484;2023-08-17T10:49:49;7.28;;;3.78;;
39738;SDS011;25422;48.286;8.484;2023-08-17T10:52:18;6.85;;;3.60;;
39738;SDS011;25422;48.286;8.484;2023-08-17T10:54:54;4.63;;;3.47;;
39738;SDS011;25422;48.286;8.484;2023-08-17T11:02:54;7.45;;;4.20;;
39738;SDS011;25422;48.286;8.484;2023-08-17T11:05:37;5.28;;;3.70;;
39738;SDS011;25422;48.286;8.484;2023-08-17T11:10:57;8.73;;;4.00;;
39738;SDS011;25422;48.286;8.484;2023-08-17T11:13:30;6.53;;;3.80;;
39738;SDS011;25422;48.286;8.484;2023-08-17T11:15:57;5.25;;;3.67;;
39738;SDS011;25422;48.286;8.484;2023-08-17T11:18:23;6.57;;;3.60;;
39738;SDS011;25422;48.286;8.484;2023-08-17T11:20:49;5.30;;;3.30;;
39738;SDS011;25422;48.286;8.484;2023-08-17T11:23:15;8.40;;;3.78;;
39738;SDS011;25422;48.286;8.484;2023-08-17T11:25:41;4.70;;;3.92;;
39738;SDS011;25422;48.286;8.484;2023-08-17T11:28:07;8.43;;;4.00;;
39738;SDS011;25422;48.286;8.484;2023-08-17T11:30:34;6.80;;;3.85;;
39738;SDS011;25422;48.286;8.484;2023-08-17T11:33:02;3.88;;;3.50;;
39738;SDS011;25422;48.286;8.484;2023-08-17T11:35:28;4.93;;;4.07;;
39738;SDS011;25422;48.286;8.484;2023-08-17T11:37:53;7.55;;;3.95;;
39738;SDS011;25422;48.286;8.484;2023-08-17T11:40:19;4.68;;;3.67;;
39738;SDS011;25422;48.286;8.484;2023-08-17T11:42:45;5.25;;;4.15;;
39738;SDS011;25422;48.286;8.484;2023-08-17T11:45:11;8.77;;;4.20;;
39738;SDS011;25422;48.286;8.484;2023-08-17T11:47:38;7.03;;;4.40;;
39738;SDS011;25422;48.286;8.484;2023-08-17T11:50:10;6.60;;;4.35;;
39738;SDS011;25422;48.286;8.484;2023-08-17T11:52:37;6.65;;;4.10;;
39738;SDS011;25422;48.286;8.484;2023-08-17T11:55:03;7.43;;;4.95;;
39738;SDS011;25422;48.286;8.484;2023-08-17T11:57:31;5.93;;;4.20;;
39738;SDS011;25422;48.286;8.484;2023-08-17T11:59:57;8.27;;;4.20;;
39738;SDS011;25422;48.286;8.484;2023-08-17T12:02:23;7.60;;;4.78;;
39738;SDS011;25422;48.286;8.484;2023-08-17T12:04:50;7.88;;;4.88;;
39738;SDS011;25422;48.286;8.484;2023-08-17T12:07:15;6.43;;;4.43;;
39738;SDS011;25422;48.286;8.484;2023-08-17T12:09:47;7.97;;;4.85;;
39738;SDS011;25422;48.286;8.484;2023-08-17T12:12:16;6.97;;;4.57;;
39738;SDS011;25422;48.286;8.484;2023-08-17T12:14:42;6.53;;;4.63;;
39738;SDS011;25422;48.286;8.484;2023-08-17T12:17:13;7.47;;;4.53;;
39738;SDS011;25422;48.286;8.484;2023-08-17T12:19:40;6.25;;;4.50;;
39738;SDS011;25422;48.286;8.484;2023-08-17T12:22:05;7.20;;;5.05;;
39738;SDS011;25422;48.286;8.484;2023-08-17T12:24:31;8.00;;;5.15;;
39738;SDS011;25422;48.286;8.484;2023-08-17T12:26:56;6.82;;;5.25;;
39738;SDS011;25422;48.286;8.484;2023-08-17T12:29:23;7.40;;;5.03;;
39738;SDS011;25422;48.286;8.484;2023-08-17T12:31:48;7.63;;;5.15;;
39738;SDS011;25422;48.286;8.484;2023-08-17T12:34:13;8.45;;;4.53;;
39738;SDS011;25422;48.286;8.484;2023-08-17T12:36:39;8.10;;;4.60;;
39738;SDS011;25422;48.286;8.484;2023-08-17T12:39:07;8.88;;;5.07;;
39738;SDS011;25422;48.286;8.484;2023-08-17T12:41:33;7.38;;;4.35;;
39738;SDS011;25422;48.286;8.484;2023-08-17T12:43:58;6.95;;;5.07;;
39738;SDS011;25422;48.286;8.484;2023-08-17T12:46:24;5.30;;;4.78;;
39738;SDS011;25422;48.286;8.484;2023-08-17T12:48:50;6.30;;;4.00;;
39738;SDS011;25422;48.286;8.484;2023-08-17T12:51:16;7.68;;;4.43;;
39738;SDS011;25422;48.286;8.484;2023-08-17T12:53:41;4.95;;;4.00;;
39738;SDS011;25422;48.286;8.484;2023-08-17T12:56:07;8.57;;;3.72;;
39738;SDS011;25422;48.286;8.484;2023-08-17T12:58:33;6.95;;;4.15;;
39738;SDS011;25422;48.286;8.484;2023-08-17T13:00:58;5.60;;;3.63;;
39738;SDS011;25422;48.286;8.484;2023-08-17T13:03:23;8.43;;;3.70;;
39738;SDS011;25422;48.286;8.484;2023-08-17T13:05:49;6.63;;;3.08;;
39738;SDS011;25422;48.286;8.484;2023-08-17T13:08:14;6.30;;;3.75;;
39738;SDS011;25422;48.286;8.484;2023-08-17T13:10:40;5.47;;;3.28;;
39738;SDS011;25422;48.286;8.484;2023-08-17T13:13:06;3.63;;;2.85;;
39738;SDS011;25422;48.286;8.484;2023-08-17T13:15:32;4.85;;;2.67;;
39738;SDS011;25422;48.286;8.484;2023-08-17T13:17:58;4.28;;;2.85;;
39738;SDS011;25422;48.286;8.484;2023-08-17T13:20:24;2.75;;;2.42;;
39738;SDS011;25422;48.286;8.484;2023-08-17T13:22:50;6.95;;;2.80;;
39738;SDS011;25422;48.286;8.484;2023-08-17T13:25:15;4.32;;;2.58;;
39738;SDS011;25422;48.286;8.484;2023-08-17T13:27:41;3.38;;;2.30;;
39738;SDS011;25422;48.286;8.484;2023-08-17T13:30:07;4.40;;;2.65;;
39738;SDS011;25422;48.286;8.484;2023-08-17T13:32:32;4.95;;;2.38;;
39738;SDS011;25422;48.286;8.484;2023-08-17T13:34:58;7.05;;;2.67;;
39738;SDS011;25422;48.286;8.484;2023-08-17T13:37:23;5.50;;;2.55;;
39738;SDS011;25422;48.286;8.484;2023-08-17T13:39:49;4.43;;;2.80;;
39738;SDS011;25422;48.286;8.484;2023-08-17T13:42:14;4.22;;;2.88;;
39738;SDS011;25422;48.286;8.484;2023-08-17T13:44:39;5.95;;;2.72;;
39738;SDS011;25422;48.286;8.484;2023-08-17T13:47:05;6.05;;;2.90;;
39738;SDS011;25422;48.286;8.484;2023-08-17T13:49:30;4.03;;;2.92;;
39738;SDS011;25422;48.286;8.484;2023-08-17T13:51:56;5.28;;;3.40;;
39738;SDS011;25422;48.286;8.484;2023-08-17T13:54:22;5.18;;;3.25;;
39738;SDS011;25422;48.286;8.484;2023-08-17T13:56:48;6.40;;;3.42;;
39738;SDS011;25422;48.286;8.484;2023-08-17T13:59:13;4.82;;;3.28;;
39738;SDS011;25422;48.286;8.484;2023-08-17T14:01:38;5.70;;;2.90;;
39738;SDS011;25422;48.286;8.484;2023-08-17T14:04:04;7.25;;;3.50;;
39738;SDS011;25422;48.286;8.484;2023-08-17T14:06:33;6.78;;;3.20;;
39738;SDS011;25422;48.286;8.484;2023-08-17T14:08:58;4.10;;;3.08;;
39738;SDS011;25422;48.286;8.484;2023-08-17T14:11:24;9.25;;;3.30;;
39738;SDS011;25422;48.286;8.484;2023-08-17T14:13:49;9.43;;;3.83;;
39738;SDS011;25422;48.286;8.484;2023-08-17T14:16:14;7.05;;;3.40;;
39738;SDS011;25422;48.286;8.484;2023-08-17T14:18:40;7.43;;;2.97;;
39738;SDS011;25422;48.286;8.484;2023-08-17T14:21:05;4.80;;;3.40;;
39738;SDS011;25422;48.286;8.484;2023-08-17T14:23:30;6.13;;;3.50;;
39738;SDS011;25422;48.286;8.484;2023-08-17T14:25:56;5.25;;;3.25;;
39738;SDS011;25422;48.286;8.484;2023-08-17T14:28:21;5.88;;;3.50;;
39738;SDS011;25422;48.286;8.484;2023-08-17T14:30:46;6.10;;;3.85;;
39738;SDS011;25422;48.286;8.484;2023-08-17T14:33:12;5.50;;;4.10;;
39738;SDS011;25422;48.286;8.484;2023-08-17T14:35:39;9.52;;;3.75;;
39738;SDS011;25422;48.286;8.484;2023-08-17T14:38:05;5.25;;;3.60;;
39738;SDS011;25422;48.286;8.484;2023-08-17T14:40:30;3.78;;;3.17;;
39738;SDS011;25422;48.286;8.484;2023-08-17T14:42:55;7.53;;;3.83;;
39738;SDS011;25422;48.286;8.484;2023-08-17T14:45:21;6.05;;;3.53;;
39738;SDS011;25422;48.286;8.484;2023-08-17T14:47:47;7.57;;;3.60;;
39738;SDS011;25422;48.286;8.484;2023-08-17T14:50:12;7.68;;;3.83;;
39738;SDS011;25422;48.286;8.484;2023-08-17T14:52:39;7.68;;;3.58;;
39738;SDS011;25422;48.286;8.484;2023-08-17T14:55:04;5.72;;;3.53;;